This is the latest recevied weather packets stored in our database for station/object OE6JUE. If no packets are shown the sender has not sent any weather packets the latest 10 day(s).
| Time | Temp. | Humidity | Pressure | Rain* | Wind** | Luminosity | Snow |
|---|---|---|---|---|---|---|---|
| 1778055056 | 23.33° C | 40% | 1011.4 hPa | 0 mm | - | - | - |
| 1778054755 | 22.78° C | 41% | 1011.4 hPa | 0 mm | - | - | - |
| 1778054456 | 22.22° C | 44% | 1011.3 hPa | - | - | - | - |
| 1778054155 | 22.22° C | 44% | 1011.3 hPa | 0 mm | - | - | - |
| 1778053855 | 22.22° C | 47% | 1011.3 hPa | 0 mm | - | - | - |
| 1778053556 | 22.22° C | 46% | 1011.4 hPa | 0 mm | - | - | - |
| 1778053255 | 22.22° C | 46% | 1011.5 hPa | 0 mm | - | - | - |
| 1778052956 | 22.22° C | 46% | 1011.5 hPa | 0 mm | - | - | - |
| 1778052655 | 21.67° C | 48% | 1011.6 hPa | 0 mm | - | - | - |
| 1778052355 | 21.67° C | 48% | 1011.4 hPa | 0 mm | - | - | - |
| 1778052055 | 21.11° C | 48% | 1011.4 hPa | 0 mm | - | - | - |
| 1778051756 | 21.11° C | 48% | 1011.4 hPa | 0 mm | - | - | - |
| 1778051456 | 21.11° C | 49% | 1011.4 hPa | 0 mm | - | - | - |
| 1778051155 | 20.56° C | 50% | 1011.5 hPa | 0 mm | - | - | - |
| 1778050856 | 20° C | 49% | 1011.4 hPa | - | - | - | - |
| 1778050555 | 20° C | 49% | 1011.4 hPa | 0 mm | - | - | - |
| 1778050255 | 20° C | 49% | 1011.5 hPa | 0 mm | - | - | - |
| 1778049955 | 19.44° C | 50% | 1011.5 hPa | 0 mm | - | - | - |
| 1778049655 | 19.44° C | 50% | 1011.6 hPa | 0 mm | - | - | - |
| 1778049355 | 19.44° C | 50% | 1011.6 hPa | 0 mm | - | - | - |
| 1778049055 | 19.44° C | 50% | 1011.6 hPa | 0 mm | - | - | - |
| 1778048755 | 19.44° C | 51% | 1011.7 hPa | 0 mm | - | - | - |
| 1778048455 | 17.78° C | 53% | 1011.7 hPa | 0 mm | - | - | - |
| 1778048155 | 17.78° C | 53% | 1011.7 hPa | 0 mm | - | - | - |
| 1778047855 | 16.67° C | 57% | 1011.7 hPa | 0 mm | - | - | - |
* Rain latest hour (hover to see other rain measurements)
** Current wind speed in m/s (hover to see current wind gust speed)